This is the latest recevied weather packets stored in our database for station/object SP1BMW-13. If no packets are shown the sender has not sent any weather packets the latest 10 day(s).
| Time | Temp. | Humidity | Pressure | Rain* | Wind** | Luminosity | Snow |
|---|---|---|---|---|---|---|---|
| 1787664905 | 23.33° C | 41% | 1017.7 hPa | 0 mm | 1.79 m/s, 29° | 539 W/m² | - |
| 1787664846 | 23.33° C | 44% | 1017.9 hPa | 0 mm | 0.89 m/s, 82° | 546 W/m² | - |
| 1787664786 | 22.78° C | 43% | 1017.9 hPa | 0 mm | 0.45 m/s, 82° | 558 W/m² | - |
| 1787664725 | 22.78° C | 44% | 1018.2 hPa | 0 mm | 1.79 m/s, 26° | 571 W/m² | - |
| 1787664665 | 22.78° C | 43% | 1018 hPa | 0 mm | 1.34 m/s, 68° | 559 W/m² | - |
| 1787664606 | 22.78° C | 45% | 1017.9 hPa | 0 mm | 1.34 m/s, 41° | 603 W/m² | - |
| 1787664547 | 22.78° C | 46% | 1018 hPa | 0 mm | 0.45 m/s, 48° | 597 W/m² | - |
| 1787664278 | 22.78° C | 46% | 1018.1 hPa | 0 mm | 0.89 m/s, 51° | 131 W/m² | - |
| 1787664218 | 22.78° C | 44% | 1018.1 hPa | 0 mm | 1.34 m/s, 40° | 138 W/m² | - |
| 1787664158 | 23.33° C | 45% | 1018.2 hPa | 0 mm | 0.45 m/s, 42° | 336 W/m² | - |
| 1787664097 | 23.33° C | 44% | 1018.3 hPa | 0 mm | 1.34 m/s, 34° | 141 W/m² | - |
| 1787664039 | 23.33° C | 43% | 1018.2 hPa | 0 mm | 1.79 m/s, 59° | 147 W/m² | - |
| 1787663977 | 22.78° C | 45% | 1018 hPa | 0 mm | 0.89 m/s, 77° | 187 W/m² | - |
| 1787663918 | 22.78° C | 47% | 1018 hPa | 0 mm | 0.89 m/s, 45° | 165 W/m² | - |
| 1787663859 | 22.78° C | 47% | 1017.9 hPa | 0 mm | 0.89 m/s, 78° | 626 W/m² | - |
| 1787663798 | 22.78° C | 47% | 1018 hPa | 0 mm | 0.45 m/s, 33° | 619 W/m² | - |
| 1787663739 | 22.78° C | 45% | 1018.1 hPa | 0 mm | 1.34 m/s, 37° | 622 W/m² | - |
| 1787663677 | 22.78° C | 45% | 1018 hPa | 0 mm | 1.34 m/s, 53° | 435 W/m² | - |
| 1787663618 | 22.78° C | 45% | 1018.1 hPa | 0 mm | 0.89 m/s, 86° | 148 W/m² | - |
| 1787663573 | 22.78° C | 44% | 1018 hPa | 0 mm | 1.79 m/s, 26° | 142 W/m² | - |
| 1787663498 | 22.78° C | 46% | 1018 hPa | 0 mm | 1.34 m/s, 50° | 625 W/m² | - |
| 1787663438 | 22.78° C | 45% | 1018.1 hPa | 0 mm | 0.45 m/s, 64° | 625 W/m² | - |
| 1787663378 | 23.33° C | 43% | 1018.2 hPa | 0 mm | 4.02 m/s, 33° | 137 W/m² | - |
| 1787663317 | 23.33° C | 44% | 1018.1 hPa | 0 mm | 1.79 m/s, 53° | 138 W/m² | - |
| 1787663257 | 23.33° C | 45% | 1018 hPa | 0 mm | 1.34 m/s, 48° | 325 W/m² | - |
* Rain latest hour (hover to see other rain measurements)
** Current wind speed in m/s (hover to see current wind gust speed)